createdAt,value
2019-03-04T00:00:10.990Z,98.03
2019-03-04T00:02:36.787Z,98.09
2019-03-04T00:05:04.269Z,98.27
2019-03-04T00:07:30.069Z,97.94
2019-03-04T00:09:55.843Z,97.94
2019-03-04T00:12:21.672Z,97.83
2019-03-04T00:14:47.455Z,97.47
2019-03-04T00:17:13.249Z,97.47
2019-03-04T00:19:39.035Z,97.56
2019-03-04T00:22:04.807Z,97.45
2019-03-04T00:24:30.599Z,97.60
2019-03-04T00:26:56.369Z,97.55
2019-03-04T00:29:22.165Z,97.39
2019-03-04T00:31:47.953Z,97.48
2019-03-04T00:34:13.748Z,97.08
2019-03-04T00:36:39.526Z,96.72
2019-03-04T00:39:08.524Z,96.79
2019-03-04T00:41:34.312Z,96.40
2019-03-04T00:44:00.100Z,96.18
2019-03-04T00:46:25.877Z,96.24
2019-03-04T00:48:51.703Z,95.81
2019-03-04T00:51:17.491Z,95.80
2019-03-04T00:53:43.296Z,95.78
2019-03-04T00:56:09.078Z,95.79
2019-03-04T00:58:34.931Z,95.91
2019-03-04T01:03:46.216Z,95.65
2019-03-04T01:06:12.092Z,95.82
2019-03-04T01:08:37.877Z,95.86
2019-03-04T01:11:04.668Z,95.92
2019-03-04T01:13:31.595Z,95.79
2019-03-04T01:15:57.427Z,95.71
2019-03-04T01:18:23.200Z,95.47
2019-03-04T01:20:49.001Z,95.57
2019-03-04T01:23:14.777Z,95.90
2019-03-04T01:25:40.579Z,95.67
2019-03-04T01:28:06.349Z,95.52
2019-03-04T01:30:32.147Z,95.39
2019-03-04T01:32:57.927Z,95.55
2019-03-04T01:35:23.715Z,95.73
2019-03-04T01:37:49.493Z,95.63
2019-03-04T01:40:18.191Z,95.57
2019-03-04T01:42:43.984Z,95.69
2019-03-04T01:45:11.786Z,95.69
2019-03-04T01:47:37.670Z,95.51
2019-03-04T01:50:06.360Z,95.32
2019-03-04T01:52:32.138Z,95.40
2019-03-04T01:54:57.957Z,95.28
2019-03-04T01:57:23.730Z,95.17
2019-03-04T01:59:49.513Z,95.21
2019-03-04T02:02:15.299Z,95.01
2019-03-04T02:04:41.075Z,94.85
2019-03-04T02:07:06.867Z,95.13
2019-03-04T02:09:32.651Z,94.78
2019-03-04T02:11:58.440Z,94.46
2019-03-04T02:14:24.222Z,94.38
2019-03-04T02:16:50.036Z,94.39
2019-03-04T02:19:15.811Z,94.27
2019-03-04T02:21:41.607Z,94.07
2019-03-04T02:24:20.118Z,94.23
2019-03-04T02:26:45.909Z,94.14
2019-03-04T02:29:11.683Z,94.72
2019-03-04T02:31:37.487Z,94.65
2019-03-04T02:34:03.260Z,94.56
2019-03-04T02:36:29.070Z,95.33
2019-03-04T02:38:54.833Z,95.76
2019-03-04T02:41:20.624Z,96.16
2019-03-04T02:43:46.396Z,96.40
2019-03-04T02:46:12.186Z,96.11
2019-03-04T02:48:37.955Z,96.03
2019-03-04T02:51:03.731Z,96.03
2019-03-04T02:53:29.530Z,95.93
2019-03-04T02:55:55.306Z,96.50
2019-03-04T02:58:21.099Z,96.36
2019-03-04T03:00:46.882Z,95.92
2019-03-04T03:03:12.675Z,95.72
2019-03-04T03:05:38.463Z,95.34
2019-03-04T03:08:04.252Z,95.34
2019-03-04T03:10:30.031Z,95.35
2019-03-04T03:12:55.827Z,94.94
2019-03-04T03:15:21.615Z,95.02
2019-03-04T03:17:47.422Z,94.96
2019-03-04T03:20:14.089Z,94.75
2019-03-04T03:22:39.896Z,94.43
2019-03-04T03:25:08.311Z,93.95
2019-03-04T03:27:34.074Z,94.01
2019-03-04T03:29:59.856Z,94.01
2019-03-04T03:32:25.666Z,93.87
2019-03-04T03:34:51.517Z,93.73
2019-03-04T03:37:17.292Z,93.76
2019-03-04T03:39:43.082Z,93.45
2019-03-04T03:42:08.852Z,93.07
2019-03-04T03:44:34.646Z,92.91
2019-03-04T03:47:00.473Z,93.21
2019-03-04T03:49:26.306Z,92.91
2019-03-04T03:51:52.081Z,92.94
2019-03-04T03:54:17.865Z,92.66
2019-03-04T03:56:43.655Z,92.79
2019-03-04T03:59:09.429Z,92.13
2019-03-04T04:01:35.210Z,92.35
2019-03-04T04:04:01.007Z,91.93
2019-03-04T04:06:26.781Z,91.42
2019-03-04T04:08:52.556Z,91.37
2019-03-04T04:11:18.340Z,91.18
2019-03-04T04:13:44.126Z,91.26
2019-03-04T04:16:09.916Z,91.26
2019-03-04T04:18:35.701Z,91.25
2019-03-04T04:21:01.489Z,91.20
2019-03-04T04:23:27.267Z,90.92
2019-03-04T04:25:53.064Z,90.44
2019-03-04T04:28:18.835Z,90.40
2019-03-04T04:30:44.623Z,90.26
2019-03-04T04:33:10.394Z,90.09
2019-03-04T04:35:36.188Z,89.82
2019-03-04T04:38:01.966Z,89.35
2019-03-04T04:40:28.359Z,89.45
2019-03-04T04:42:54.145Z,89.38
2019-03-04T04:45:19.939Z,89.10
2019-03-04T04:47:45.721Z,89.10
2019-03-04T04:50:23.158Z,88.99
2019-03-04T04:52:48.941Z,88.89
2019-03-04T04:55:14.748Z,88.51
2019-03-04T04:57:40.532Z,88.44
2019-03-04T05:00:09.513Z,87.52
2019-03-04T05:02:35.307Z,87.89
2019-03-04T05:05:01.079Z,87.67
2019-03-04T05:07:26.865Z,87.91
2019-03-04T05:09:52.649Z,87.81
2019-03-04T05:12:18.436Z,87.75
2019-03-04T05:14:44.217Z,87.92
2019-03-04T05:17:10.012Z,88.15
2019-03-04T05:19:35.800Z,87.52
2019-03-04T05:22:01.591Z,87.82
2019-03-04T05:24:29.554Z,87.49
2019-03-04T05:26:55.074Z,87.23
2019-03-04T05:29:20.854Z,87.17
2019-03-04T05:31:46.654Z,86.66
2019-03-04T05:34:12.434Z,86.90
2019-03-04T05:36:38.244Z,88.03
2019-03-04T05:39:04.820Z,89.23
2019-03-04T05:41:30.608Z,90.31
2019-03-04T05:43:56.399Z,91.87
2019-03-04T05:46:22.180Z,92.57
2019-03-04T05:48:47.971Z,93.11
2019-03-04T05:51:13.759Z,93.37
2019-03-04T05:53:39.547Z,93.59
2019-03-04T05:56:05.318Z,93.56
2019-03-04T05:58:31.103Z,93.40
2019-03-04T06:01:20.756Z,93.56
2019-03-04T06:03:48.960Z,93.32
2019-03-04T06:06:15.743Z,93.32
2019-03-04T06:08:41.539Z,93.33
2019-03-04T06:11:07.312Z,93.26
2019-03-04T06:13:33.111Z,93.05
2019-03-04T06:15:58.884Z,92.70
2019-03-04T06:18:24.683Z,91.98
2019-03-04T06:20:50.463Z,91.51
2019-03-04T06:23:16.256Z,90.80
2019-03-04T06:25:42.041Z,90.26
2019-03-04T06:28:07.829Z,90.26
2019-03-04T06:30:33.603Z,89.81
2019-03-04T06:32:59.401Z,88.97
2019-03-04T06:35:25.177Z,88.67
2019-03-04T06:37:50.990Z,88.52
2019-03-04T06:40:18.165Z,87.78
2019-03-04T06:42:43.949Z,87.23
2019-03-04T06:45:11.842Z,87.49
2019-03-04T06:47:38.129Z,86.69
2019-03-04T06:50:07.430Z,86.35
2019-03-04T06:52:33.216Z,86.01
2019-03-04T06:55:02.811Z,85.73
2019-03-04T06:57:28.974Z,85.20
2019-03-04T07:00:19.943Z,85.24
2019-03-04T07:02:45.723Z,85.26
2019-03-04T07:05:15.331Z,84.65
2019-03-04T07:07:41.128Z,84.67
2019-03-04T07:10:07.511Z,84.67
2019-03-04T07:12:33.294Z,84.53
2019-03-04T07:14:59.092Z,84.33
2019-03-04T07:17:24.880Z,83.89
2019-03-04T07:20:09.180Z,83.79
2019-03-04T07:22:34.980Z,83.67
2019-03-04T07:25:00.768Z,83.09
2019-03-04T07:27:26.546Z,83.12
2019-03-04T07:29:52.827Z,82.71
2019-03-04T07:32:18.607Z,83.31
2019-03-04T07:34:44.399Z,83.22
2019-03-04T07:37:10.175Z,82.85
2019-03-04T07:39:35.977Z,81.66
2019-03-04T07:42:01.752Z,80.98
2019-03-04T07:44:27.542Z,80.47
2019-03-04T07:46:53.314Z,79.48
2019-03-04T07:49:19.090Z,78.99
2019-03-04T07:51:44.971Z,79.08
2019-03-04T07:54:10.858Z,77.96
2019-03-04T07:56:36.646Z,78.79
2019-03-04T07:59:02.523Z,78.75
2019-03-04T08:01:28.321Z,79.60
2019-03-04T08:03:54.093Z,78.89
2019-03-04T08:06:19.883Z,78.92
2019-03-04T08:09:07.165Z,78.67
2019-03-04T08:11:48.689Z,78.67
2019-03-04T08:14:14.476Z,77.88
2019-03-04T08:16:40.280Z,78.27
2019-03-04T08:19:06.051Z,77.80
2019-03-04T08:21:31.835Z,77.04
2019-03-04T08:23:57.615Z,77.08
2019-03-04T08:26:23.407Z,76.61
2019-03-04T08:28:49.178Z,76.17
2019-03-04T08:31:15.063Z,76.83
2019-03-04T08:33:40.850Z,75.56
2019-03-04T08:36:06.642Z,75.02
2019-03-04T08:38:32.420Z,75.51
2019-03-04T08:40:58.202Z,74.65
2019-03-04T08:43:23.983Z,74.36
2019-03-04T08:45:49.774Z,74.42
2019-03-04T08:48:15.629Z,73.50
2019-03-04T08:50:41.446Z,72.81
2019-03-04T08:53:07.230Z,72.82
2019-03-04T08:55:33.021Z,72.55
2019-03-04T08:57:58.795Z,72.72
2019-03-04T09:00:28.695Z,73.29
2019-03-04T09:02:54.478Z,73.60
2019-03-04T09:05:20.268Z,74.38
2019-03-04T09:07:46.060Z,75.92
2019-03-04T09:10:14.938Z,80.92
2019-03-04T09:12:40.724Z,85.51
2019-03-04T09:15:09.616Z,85.59
2019-03-04T09:17:35.431Z,84.23
2019-03-04T09:20:01.301Z,84.75
2019-03-04T09:22:27.096Z,85.00
2019-03-04T09:24:52.877Z,84.90
2019-03-04T09:27:18.665Z,85.29
2019-03-04T09:29:46.590Z,85.62
2019-03-04T09:32:12.135Z,86.44
2019-03-04T09:34:37.923Z,86.98
2019-03-04T09:37:03.724Z,87.00
2019-03-04T09:39:29.504Z,87.80
2019-03-04T09:41:57.194Z,87.65
2019-03-04T09:44:22.979Z,88.55
2019-03-04T09:46:48.771Z,89.21
2019-03-04T09:49:14.561Z,89.22
2019-03-04T09:51:40.344Z,89.18
2019-03-04T09:54:06.127Z,89.38
2019-03-04T09:56:31.918Z,89.57
2019-03-04T09:58:57.691Z,89.75
2019-03-04T10:01:27.294Z,89.27
2019-03-04T10:04:05.890Z,89.12
2019-03-04T10:06:41.418Z,89.73
2019-03-04T10:09:13.751Z,87.57
2019-03-04T10:11:43.410Z,87.87
2019-03-04T10:14:12.954Z,87.87
2019-03-04T10:16:45.561Z,88.23
2019-03-04T10:19:31.610Z,87.76
2019-03-04T10:22:04.430Z,87.67
2019-03-04T10:24:39.560Z,86.76
2019-03-04T10:27:09.161Z,87.24
2019-03-04T10:30:00.250Z,86.05
2019-03-04T10:32:45.376Z,85.59
2019-03-04T10:35:30.395Z,84.40
2019-03-04T10:38:09.129Z,83.60
2019-03-04T10:40:53.351Z,83.60
2019-03-04T10:43:31.805Z,83.92
2019-03-04T10:46:18.078Z,83.35
2019-03-04T10:48:43.883Z,81.71
2019-03-04T10:51:09.674Z,81.71
2019-03-04T10:53:35.469Z,80.80
2019-03-04T10:56:01.254Z,78.90
2019-03-04T10:58:27.042Z,78.23
2019-03-04T11:00:52.841Z,76.89
2019-03-04T11:03:18.628Z,77.14
2019-03-04T11:05:44.407Z,78.36
2019-03-04T11:08:10.207Z,76.92
2019-03-04T11:10:35.997Z,77.33
2019-03-04T11:13:01.782Z,77.33
2019-03-04T11:15:27.559Z,77.45
2019-03-04T11:17:54.445Z,77.62
2019-03-04T11:20:20.463Z,77.36
2019-03-04T11:22:46.230Z,77.90
2019-03-04T11:25:12.619Z,78.13
2019-03-04T11:27:38.403Z,77.48
2019-03-04T11:30:10.569Z,77.48
2019-03-04T11:32:36.352Z,77.74
2019-03-04T11:35:04.147Z,78.58
2019-03-04T11:37:29.941Z,81.42
2019-03-04T11:39:57.641Z,81.42
2019-03-04T11:42:23.419Z,80.66
2019-03-04T11:44:49.208Z,86.87
2019-03-04T11:47:16.918Z,90.16
2019-03-04T11:49:42.763Z,91.22
2019-03-04T11:52:08.583Z,92.32
2019-03-04T11:54:34.371Z,92.43
2019-03-04T11:57:00.149Z,92.37
2019-03-04T11:59:25.950Z,92.33
2019-03-04T12:01:51.819Z,92.66
2019-03-04T12:04:17.612Z,92.93
2019-03-04T12:06:43.388Z,92.93
2019-03-04T12:09:11.583Z,92.67
2019-03-04T12:11:38.413Z,91.88
2019-03-04T12:14:04.372Z,91.04
2019-03-04T12:16:30.162Z,91.75
2019-03-04T12:18:55.973Z,91.36
2019-03-04T12:21:21.755Z,91.37
2019-03-04T12:23:47.534Z,91.42
2019-03-04T12:26:13.324Z,90.89
2019-03-04T12:28:39.103Z,91.04
2019-03-04T12:31:04.892Z,90.99
2019-03-04T12:33:30.678Z,90.25
2019-03-04T12:35:56.489Z,89.88
2019-03-04T12:38:22.265Z,89.89
2019-03-04T12:40:48.064Z,89.33
2019-03-04T12:43:13.843Z,89.22
2019-03-04T12:45:39.713Z,89.04
2019-03-04T12:48:05.479Z,88.60
2019-03-04T12:50:33.080Z,90.09
2019-03-04T12:52:58.964Z,88.87
2019-03-04T12:55:24.759Z,88.72
2019-03-04T12:57:50.530Z,88.16
2019-03-04T13:00:18.541Z,88.86
2019-03-04T13:02:44.324Z,87.81
2019-03-04T13:05:12.987Z,87.15
2019-03-04T13:07:38.744Z,85.93
2019-03-04T13:10:13.022Z,85.96
2019-03-04T13:12:40.425Z,85.54
2019-03-04T13:15:21.549Z,85.54
2019-03-04T13:17:47.657Z,85.16
2019-03-04T13:20:27.493Z,83.68
2019-03-04T13:22:53.271Z,83.68
2019-03-04T13:25:19.065Z,84.05
2019-03-04T13:27:44.843Z,83.01
2019-03-04T13:30:26.169Z,82.81
2019-03-04T13:32:51.964Z,82.46
2019-03-04T13:35:25.052Z,82.74
2019-03-04T13:37:50.979Z,81.67
2019-03-04T13:40:16.855Z,82.76
2019-03-04T13:42:42.650Z,82.55
2019-03-04T13:45:10.923Z,82.92
2019-03-04T13:47:36.720Z,82.88
2019-03-04T13:50:06.298Z,82.64
2019-03-04T13:52:32.095Z,83.59
2019-03-04T13:54:57.872Z,82.35
2019-03-04T13:57:23.675Z,82.79
2019-03-04T13:59:49.471Z,82.24
2019-03-04T14:02:15.375Z,80.95
2019-03-04T14:04:41.159Z,81.35
2019-03-04T14:07:06.946Z,82.35
2019-03-04T14:09:32.735Z,83.13
2019-03-04T14:11:58.530Z,84.36
2019-03-04T14:14:24.309Z,85.82
2019-03-04T14:16:50.131Z,85.89
2019-03-04T14:19:15.912Z,85.94
2019-03-04T14:21:41.686Z,85.75
2019-03-04T14:24:07.474Z,85.93
2019-03-04T14:26:33.263Z,86.06
2019-03-04T14:28:59.063Z,85.47
2019-03-04T14:31:24.844Z,85.47
2019-03-04T14:33:50.631Z,84.94
2019-03-04T14:36:16.411Z,84.53
2019-03-04T14:38:42.202Z,84.42
2019-03-04T14:41:07.985Z,83.86
2019-03-04T14:43:33.782Z,83.53
2019-03-04T14:45:59.659Z,83.53
2019-03-04T14:48:25.447Z,83.69
2019-03-04T14:50:51.232Z,84.19
2019-03-04T14:53:17.026Z,85.48
2019-03-04T14:55:42.806Z,86.95
2019-03-04T14:58:08.603Z,87.66
2019-03-04T15:00:41.818Z,87.51
2019-03-04T15:03:07.603Z,88.51
2019-03-04T15:05:33.390Z,89.45
2019-03-04T15:07:59.180Z,90.40
2019-03-04T15:10:24.965Z,90.47
2019-03-04T15:12:50.783Z,90.77
2019-03-04T15:15:21.505Z,90.49
2019-03-04T15:17:47.297Z,90.43
2019-03-04T15:20:24.519Z,90.79
2019-03-04T15:22:50.302Z,90.71
2019-03-04T15:25:39.950Z,90.76
2019-03-04T15:28:13.419Z,91.05
2019-03-04T15:30:40.822Z,91.66
2019-03-04T15:33:06.731Z,91.81
2019-03-04T15:35:32.506Z,92.08
2019-03-04T15:37:58.283Z,92.64
2019-03-04T15:40:24.069Z,92.88
2019-03-04T15:42:49.845Z,93.21
2019-03-04T15:45:15.636Z,93.40
2019-03-04T15:47:42.211Z,93.51
2019-03-04T15:50:09.606Z,93.15
2019-03-04T15:52:35.386Z,93.20
2019-03-04T15:55:01.179Z,93.34
2019-03-04T15:57:27.056Z,93.83
2019-03-04T15:59:52.847Z,93.75
2019-03-04T16:02:18.621Z,93.65
2019-03-04T16:04:44.411Z,93.57
2019-03-04T16:07:10.688Z,93.76
2019-03-04T16:09:36.482Z,94.04
2019-03-04T16:12:02.255Z,94.40
2019-03-04T16:14:28.143Z,94.42
2019-03-04T16:16:53.925Z,94.52
2019-03-04T16:19:19.723Z,94.53
2019-03-04T16:21:45.501Z,94.62
2019-03-04T16:24:11.299Z,94.61
2019-03-04T16:26:37.074Z,94.50
2019-03-04T16:29:02.948Z,94.93
2019-03-04T16:31:28.735Z,94.93
2019-03-04T16:33:54.508Z,94.78
2019-03-04T16:36:20.300Z,94.53
2019-03-04T16:38:46.070Z,94.45
2019-03-04T16:41:11.863Z,94.20
2019-03-04T16:43:37.632Z,93.97
2019-03-04T16:46:03.429Z,94.03
2019-03-04T16:48:29.205Z,93.93
2019-03-04T16:50:55.097Z,93.87
2019-03-04T16:53:27.248Z,94.08
2019-03-04T16:55:53.036Z,94.10
2019-03-04T16:58:18.805Z,94.22
2019-03-04T17:00:45.297Z,93.50
2019-03-04T17:03:11.169Z,93.74
2019-03-04T17:05:36.964Z,94.11
2019-03-04T17:08:03.045Z,94.00
2019-03-04T17:10:28.845Z,94.15
2019-03-04T17:12:54.715Z,94.29
2019-03-04T17:15:21.603Z,94.30
2019-03-04T17:17:48.098Z,94.21
2019-03-04T17:20:15.193Z,93.96
2019-03-04T17:22:40.970Z,94.02
2019-03-04T17:25:13.065Z,94.16
2019-03-04T17:27:38.842Z,94.16
2019-03-04T17:30:08.165Z,94.19
2019-03-04T17:32:33.946Z,94.08
2019-03-04T17:34:59.724Z,94.18
2019-03-04T17:37:25.528Z,93.75
2019-03-04T17:39:52.303Z,93.80
2019-03-04T17:42:18.161Z,93.53
2019-03-04T17:44:43.935Z,93.65
2019-03-04T17:47:09.889Z,93.98
2019-03-04T17:49:35.646Z,93.89
2019-03-04T17:52:01.485Z,93.62
2019-03-04T17:54:27.255Z,93.68
2019-03-04T17:56:53.049Z,93.72
2019-03-04T17:59:18.827Z,93.47
2019-03-04T18:01:44.649Z,93.28
2019-03-04T18:04:10.439Z,93.18
2019-03-04T18:06:36.229Z,93.18
2019-03-04T18:09:02.705Z,92.98
2019-03-04T18:11:28.545Z,93.22
2019-03-04T18:13:54.409Z,93.42
2019-03-04T18:16:20.245Z,94.34
2019-03-04T18:18:46.032Z,94.34
2019-03-04T18:21:11.863Z,93.96
2019-03-04T18:23:37.637Z,93.97
2019-03-04T18:26:10.384Z,93.70
2019-03-04T18:28:58.412Z,93.62
2019-03-04T18:32:00.252Z,93.51
2019-03-04T18:34:44.803Z,93.44
2019-03-04T18:37:23.684Z,93.71
2019-03-04T18:39:56.456Z,93.90
2019-03-04T18:42:31.988Z,93.17
2019-03-04T18:45:10.883Z,92.48
2019-03-04T18:48:15.443Z,92.14
2019-03-04T18:50:41.218Z,92.61
2019-03-04T18:53:07.024Z,92.20
2019-03-04T18:55:32.900Z,92.53
2019-03-04T18:57:58.700Z,92.27
2019-03-04T19:00:24.981Z,90.77
2019-03-04T19:02:50.771Z,90.38
2019-03-04T19:05:16.543Z,91.01
2019-03-04T19:07:42.335Z,89.70
2019-03-04T19:10:10.111Z,89.59
2019-03-04T19:12:35.907Z,89.62
2019-03-04T19:15:01.888Z,89.31
2019-03-04T19:17:33.525Z,87.57
2019-03-04T19:19:55.372Z,88.17
2019-03-04T19:22:21.161Z,88.38
2019-03-04T19:24:46.947Z,88.47
2019-03-04T19:27:12.720Z,87.51
2019-03-04T19:29:38.517Z,87.33
2019-03-04T19:32:04.287Z,86.81
2019-03-04T19:34:30.079Z,86.47
2019-03-04T19:36:55.855Z,86.14
2019-03-04T19:39:21.642Z,86.17
2019-03-04T19:41:47.412Z,86.14
2019-03-04T19:44:13.208Z,85.30
2019-03-04T19:46:39.087Z,85.95
2019-03-04T19:49:04.882Z,85.14
2019-03-04T19:51:30.650Z,84.89
2019-03-04T19:53:56.447Z,84.65
2019-03-04T19:56:22.223Z,85.14
2019-03-04T19:58:48.018Z,84.42
2019-03-04T20:01:13.791Z,84.12
2019-03-04T20:03:39.582Z,84.04
2019-03-04T20:06:05.356Z,83.23
2019-03-04T20:08:31.131Z,82.63
2019-03-04T20:10:56.920Z,82.62
2019-03-04T20:13:22.995Z,82.17
2019-03-04T20:15:50.289Z,81.99
2019-03-04T20:18:16.070Z,82.60
2019-03-04T20:20:41.863Z,81.96
2019-03-04T20:23:07.634Z,82.09
2019-03-04T20:25:34.022Z,81.64
2019-03-04T20:27:59.799Z,81.93
2019-03-04T20:30:25.767Z,81.43
2019-03-04T20:32:51.669Z,81.19
2019-03-04T20:35:18.171Z,81.21
2019-03-04T20:37:59.848Z,80.65
2019-03-04T20:40:25.635Z,79.94
2019-03-04T20:42:51.697Z,80.01
2019-03-04T20:45:19.347Z,79.95
2019-03-04T20:47:45.249Z,80.45
2019-03-04T20:50:16.533Z,79.69
2019-03-04T20:52:42.720Z,80.09
2019-03-04T20:55:09.735Z,80.26
2019-03-04T20:57:35.547Z,80.29
2019-03-04T21:00:03.036Z,80.52
2019-03-04T21:02:28.825Z,80.40
2019-03-04T21:04:54.614Z,80.37
2019-03-04T21:07:20.629Z,80.37
2019-03-04T21:09:46.835Z,80.63
2019-03-04T21:12:12.894Z,80.05
2019-03-04T21:14:39.639Z,80.16
2019-03-04T21:17:05.432Z,80.39
2019-03-04T21:19:31.223Z,79.85
2019-03-04T21:21:57.034Z,79.55
2019-03-04T21:24:22.808Z,78.92
2019-03-04T21:26:48.696Z,79.23
2019-03-04T21:29:30.302Z,79.51
2019-03-04T21:31:55.605Z,78.97
2019-03-04T21:34:36.654Z,78.97
2019-03-04T21:37:09.288Z,79.13
2019-03-04T21:39:48.429Z,79.32
2019-03-04T21:42:24.031Z,80.38
2019-03-04T21:45:02.703Z,80.51
2019-03-04T21:47:50.685Z,81.23
2019-03-04T21:50:32.616Z,81.54
2019-03-04T21:53:05.256Z,81.62
2019-03-04T21:55:36.479Z,81.75
2019-03-04T21:58:02.623Z,81.97
2019-03-04T22:00:31.726Z,81.79
2019-03-04T22:03:06.966Z,81.98
2019-03-04T22:05:32.877Z,82.36
2019-03-04T22:07:58.769Z,82.30
2019-03-04T22:10:24.656Z,82.27
2019-03-04T22:12:50.439Z,81.90
2019-03-04T22:15:16.210Z,81.90
2019-03-04T22:17:43.368Z,82.23
2019-03-04T22:20:10.759Z,82.58
2019-03-04T22:22:36.639Z,82.95
2019-03-04T22:25:05.331Z,83.00
2019-03-04T22:27:31.114Z,82.33
2019-03-04T22:29:56.921Z,82.52
2019-03-04T22:32:22.692Z,82.37
2019-03-04T22:34:48.521Z,82.19
2019-03-04T22:37:14.301Z,81.86
2019-03-04T22:39:40.094Z,81.94
2019-03-04T22:42:05.867Z,82.01
2019-03-04T22:44:33.002Z,81.51
2019-03-04T22:46:58.779Z,81.32
2019-03-04T22:49:25.815Z,81.85
2019-03-04T22:51:51.623Z,81.57
2019-03-04T22:54:17.375Z,80.96
2019-03-04T22:56:43.158Z,80.93
2019-03-04T22:59:09.113Z,80.41
2019-03-04T23:01:37.678Z,80.85
2019-03-04T23:04:14.959Z,80.96
2019-03-04T23:06:56.566Z,80.74
2019-03-04T23:09:27.178Z,80.87
2019-03-04T23:12:15.139Z,80.93
2019-03-04T23:14:41.030Z,80.43
2019-03-04T23:17:06.806Z,80.88
2019-03-04T23:19:32.606Z,81.13
2019-03-04T23:21:58.415Z,81.66
2019-03-04T23:24:24.218Z,81.24
2019-03-04T23:26:49.992Z,81.69
2019-03-04T23:29:15.761Z,81.28
2019-03-04T23:31:41.556Z,81.55
2019-03-04T23:34:07.334Z,81.31
2019-03-04T23:36:33.120Z,81.54
2019-03-04T23:38:58.888Z,81.89
2019-03-04T23:41:24.775Z,81.60
2019-03-04T23:43:50.550Z,81.38
2019-03-04T23:46:17.455Z,81.23
2019-03-04T23:48:43.239Z,81.21
2019-03-04T23:51:09.027Z,81.09
2019-03-04T23:53:34.799Z,81.44
2019-03-04T23:56:00.587Z,81.05
2019-03-04T23:58:26.366Z,81.40
